Grand Forks, Canada
Current Conditions -  °F | °C
As of 5:00 AM on Sunday 23 Nov 2014 (Local Time) from CYYF Reporting Station
Broken Clouds Broken Clouds  
Wind Chill: 26°   Ceiling: 15000
Heat Index: 36°   Visibility: 15mi
Dew Point: 30°   Wind: 16mph
Humidity: 81%   Direction: 160°SSE
Pressure: 30.01"   Gusts: 28mph
Location:  49.05°N, 118.47°W
Report Text: CYYF 231300Z 16014G24KT 15SM FEW080 BKN150 02/M01 A3001 RMK AC2AC5 SLP175
Loading
Personal Weather Stations






























Interactive Weather Map New forecast layout! Learn more

10-Day Weather Forecast

Advertisements
Track Severe Weather on mobile